Time;durP1;ratioP1;P1;durP2;ratioP2;P2;SDS_P1;SDS_P2;PMS_P1;PMS_P2;Temp;Humidity;BMP_temperature;BMP_pressure;BME280_temperature;BME280_humidity;BME280_pressure;Samples;Min_cycle;Max_cycle;Signal;HPM_P1;HPM_P2
2022/01/17 00:01:35;;;;;;;13.4;9.1;;;;;;;2.06;82.0166;949.3033;;;;
2022/01/17 00:04:17;;;;;;;15.7;9.7;;;;;;;2.16;81.68848;949.3608;;;;
2022/01/17 00:06:50;;;;;;;13.9;9.3;;;;;;;2.22;81.43164;949.4033;;;;
2022/01/17 00:09:22;;;;;;;16.8;10.9;;;;;;;2.14;81.75195;949.4808;;;;
2022/01/17 00:11:53;;;;;;;14;9.1;;;;;;;2.08;83.03809;949.5165;;;;
2022/01/17 00:14:42;;;;;;;17.1;9.9;;;;;;;2.13;83.01563;949.5626;;;;
2022/01/17 00:17:35;;;;;;;15.4;9.4;;;;;;;2.24;82.08496;949.5302;;;;
2022/01/17 00:19:57;;;;;;;14.1;10;;;;;;;2.23;82.0625;949.61;;;;
2022/01/17 00:22:25;;;;;;;13.9;9.5;;;;;;;2.18;82.10742;949.5647;;;;
2022/01/17 00:24:54;;;;;;;14.8;9.6;;;;;;;2.24;81.96289;949.6594;;;;
2022/01/17 00:27:19;;;;;;;15.5;9.7;;;;;;;2.21;82.03613;949.6167;;;;
2022/01/17 00:29:46;;;;;;;14.8;10.1;;;;;;;2.33;81.49902;949.6392;;;;
2022/01/17 00:32:11;;;;;;;14.6;8.8;;;;;;;2.16;81.72363;949.5858;;;;
2022/01/17 00:34:39;;;;;;;14.3;9.4;;;;;;;2.13;81.57129;949.5959;;;;
2022/01/17 00:37:04;;;;;;;14.2;9.7;;;;;;;2.18;81.61523;949.323;;;;
2022/01/17 00:39:30;;;;;;;13;9.3;;;;;;;2.26;81.65332;949.4515;;;;
2022/01/17 00:41:55;;;;;;;13.2;9.2;;;;;;;2.19;81.20117;949.5433;;;;
2022/01/17 00:44:23;;;;;;;13.6;9;;;;;;;2.27;80.77051;949.4833;;;;
2022/01/17 00:46:47;;;;;;;13.9;9.3;;;;;;;2.37;80.41895;949.5511;;;;
2022/01/17 00:49:13;;;;;;;13.2;9;;;;;;;2.44;80.16211;949.5405;;;;
2022/01/17 00:51:38;;;;;;;13.7;9.3;;;;;;;2.49;79.81445;949.4877;;;;
2022/01/17 00:54:03;;;;;;;13;8.9;;;;;;;2.5;79.94043;949.4578;;;;
2022/01/17 00:56:28;;;;;;;13.1;9;;;;;;;2.56;80.21973;949.5072;;;;
2022/01/17 00:58:57;;;;;;;13.8;9.6;;;;;;;2.61;79.98145;949.6102;;;;
2022/01/17 01:01:22;;;;;;;15.7;9.6;;;;;;;2.62;79.58008;949.5541;;;;
2022/01/17 01:03:48;;;;;;;14.4;9.3;;;;;;;2.67;79.49902;949.6215;;;;
2022/01/17 01:06:13;;;;;;;14.8;9.4;;;;;;;2.66;79.52148;949.6627;;;;
2022/01/17 01:08:40;;;;;;;14.4;9.6;;;;;;;2.45;81.28613;949.6906;;;;
2022/01/17 01:11:05;;;;;;;13.1;9.3;;;;;;;2.46;80.87305;949.6642;;;;
2022/01/17 01:13:31;;;;;;;14.7;10;;;;;;;2.48;80.8877;949.6677;;;;
2022/01/17 01:16:22;;;;;;;13.2;9.3;;;;;;;2.5;80.79102;949.694;;;;
2022/01/17 01:18:37;;;;;;;13.3;9.1;;;;;;;2.5;80.72559;949.6339;;;;
2022/01/17 01:21:23;;;;;;;14.6;9.6;;;;;;;2.55;80.86816;949.6689;;;;
2022/01/17 01:28:06;;;;;;;14.8;10;;;;;;;2.65;80.27051;949.615;;;;
2022/01/17 01:30:33;;;;;;;13.8;9.5;;;;;;;2.58;80.47168;949.5212;;;;
2022/01/17 01:32:59;;;;;;;14.4;9.3;;;;;;;2.5;80.87109;949.67;;;;
2022/01/17 01:35:26;;;;;;;14.4;9.1;;;;;;;2.28;81.84668;949.6259;;;;
2022/01/17 01:37:52;;;;;;;12.2;8.4;;;;;;;2.47;81.09766;949.6937;;;;
2022/01/17 01:40:18;;;;;;;11.2;7.8;;;;;;;2.55;79.5127;949.7113;;;;
2022/01/17 01:42:44;;;;;;;11.9;8.1;;;;;;;2.52;80.24707;949.7064;;;;
2022/01/17 01:45:09;;;;;;;11.5;7.8;;;;;;;2.64;80.7041;949.7701;;;;
2022/01/17 01:47:35;;;;;;;14.7;8.6;;;;;;;2.58;80.92969;949.7993;;;;
2022/01/17 01:50:00;;;;;;;11.9;8.2;;;;;;;2.63;80.89453;949.7805;;;;
2022/01/17 01:52:25;;;;;;;10.9;7.5;;;;;;;2.67;80.51074;949.8114;;;;
2022/01/17 01:54:51;;;;;;;10.5;7.7;;;;;;;2.75;80;949.8098;;;;
2022/01/17 01:57:19;;;;;;;12.2;7.6;;;;;;;2.77;79.86719;949.7361;;;;
2022/01/17 01:59:44;;;;;;;11.8;7.7;;;;;;;2.73;80.53418;949.7693;;;;
2022/01/17 02:02:10;;;;;;;13.5;8.6;;;;;;;2.62;81.6875;949.7491;;;;
2022/01/17 02:04:36;;;;;;;13.7;8.6;;;;;;;2.54;81.70508;949.7797;;;;
2022/01/17 02:07:02;;;;;;;11.4;8.6;;;;;;;2.56;81.27344;949.7466;;;;
2022/01/17 02:09:27;;;;;;;15;9.7;;;;;;;2.49;81.37207;949.6603;;;;
2022/01/17 02:11:54;;;;;;;13;9.2;;;;;;;2.53;81.70508;949.707;;;;
2022/01/17 02:14:19;;;;;;;13.1;8.9;;;;;;;2.48;81.7168;949.7503;;;;
2022/01/17 02:16:47;;;;;;;16;9.4;;;;;;;2.36;82.0752;949.7142;;;;
2022/01/17 02:19:09;;;;;;;12.5;8.7;;;;;;;2.44;82.14746;949.6853;;;;
2022/01/17 02:21:45;;;;;;;13;8.5;;;;;;;2.56;81.71094;949.7015;;;;
2022/01/17 02:24:02;;;;;;;12.5;8.9;;;;;;;2.35;82.21973;949.6414;;;;
2022/01/17 02:26:27;;;;;;;14.2;10;;;;;;;2.18;83.40625;949.5908;;;;
2022/01/17 02:28:52;;;;;;;13.9;10.1;;;;;;;2.25;82.87207;949.7672;;;;
2022/01/17 02:31:17;;;;;;;15.2;9.8;;;;;;;2.07;83.6543;949.7651;;;;
2022/01/17 02:33:42;;;;;;;14.2;10;;;;;;;;;;;;;
2022/01/17 02:36:07;;;;;;;13;9.4;;;;;;;;;;;;;
2022/01/17 02:38:33;;;;;;;15.7;10;;;;;;;;;;;;;
2022/01/17 02:40:59;;;;;;;13.4;9;;;;;;;;;;;;;
2022/01/17 02:43:26;;;;;;;14.5;9.2;;;;;;;;;;;;;
2022/01/17 02:48:15;;;;;;;15.5;9.6;;;;;;;;;;;;;
2022/01/17 02:50:41;;;;;;;14.8;9.6;;;;;;;;;;;;;
2022/01/17 02:53:08;;;;;;;14.2;9.9;;;;;;;;;;;;;
2022/01/17 02:55:33;;;;;;;14.9;9.4;;;;;;;;;;;;;
2022/01/17 02:57:58;;;;;;;14.3;9.8;;;;;;;;;;;;;
2022/01/17 03:00:23;;;;;;;15.3;9.5;;;;;;;;;;;;;
2022/01/17 03:02:49;;;;;;;14.2;9.4;;;;;;;;;;;;;
2022/01/17 03:05:15;;;;;;;13;9.7;;;;;;;;;;;;;
2022/01/17 03:07:40;;;;;;;13.5;9.8;;;;;;;;;;;;;
2022/01/17 03:10:11;;;;;;;15.2;10;;;;;;;;;;;;;
2022/01/17 03:12:31;;;;;;;15.6;10.2;;;;;;;;;;;;;
2022/01/17 03:14:56;;;;;;;18.2;10.1;;;;;;;;;;;;;
2022/01/17 03:17:21;;;;;;;16.2;10.4;;;;;;;;;;;;;
2022/01/17 03:19:48;;;;;;;14.8;10.2;;;;;;;;;;;;;
2022/01/17 03:22:13;;;;;;;15.6;10.3;;;;;;;;;;;;;
2022/01/17 03:24:39;;;;;;;14.5;9.8;;;;;;;;;;;;;
2022/01/17 03:27:04;;;;;;;15.9;9.8;;;;;;;;;;;;;
2022/01/17 03:29:30;;;;;;;16.2;9.5;;;;;;;;;;;;;
2022/01/17 03:31:55;;;;;;;16.9;10;;;;;;;;;;;;;
2022/01/17 03:34:22;;;;;;;13.8;9;;;;;;;;;;;;;
2022/01/17 03:36:47;;;;;;;12.9;8.6;;;;;;;;;;;;;
2022/01/17 03:39:13;;;;;;;12.3;8.6;;;;;;;;;;;;;
2022/01/17 03:41:38;;;;;;;13.6;9.6;;;;;;;;;;;;;
2022/01/17 03:44:04;;;;;;;16.2;9.9;;;;;;;;;;;;;
2022/01/17 03:46:29;;;;;;;12.9;9.2;;;;;;;;;;;;;
2022/01/17 03:48:55;;;;;;;15.6;9.9;;;;;;;;;;;;;
2022/01/17 03:51:20;;;;;;;15;9.8;;;;;;;;;;;;;
2022/01/17 03:53:46;;;;;;;16.6;10.7;;;;;;;;;;;;;
2022/01/17 03:56:12;;;;;;;15.6;10.6;;;;;;;;;;;;;
2022/01/17 03:58:37;;;;;;;17.5;10.4;;;;;;;;;;;;;
2022/01/17 04:02:31;;;;;;;15.4;10.3;;;;;;;2.64;83.78711;949.9242;;;;
2022/01/17 04:04:56;;;;;;;16.3;10.4;;;;;;;2.58;84.01367;949.9247;;;;
2022/01/17 04:07:23;;;;;;;14;9.4;;;;;;;2.53;84.2832;949.8516;;;;
2022/01/17 04:09:48;;;;;;;13.7;8.7;;;;;;;2.63;83.99805;949.7938;;;;
2022/01/17 04:12:20;;;;;;;14.1;8.9;;;;;;;2.53;84.03613;949.9152;;;;
2022/01/17 04:14:54;;;;;;;12.9;8.6;;;;;;;2.47;84.52832;949.9865;;;;
2022/01/17 04:17:19;;;;;;;15.3;8.8;;;;;;;2.44;84.73535;949.9661;;;;
2022/01/17 04:19:52;;;;;;;13.1;8.7;;;;;;;2.51;84.94043;949.9395;;;;
2022/01/17 04:22:14;;;;;;;13.3;8.5;;;;;;;2.51;84.36719;949.8867;;;;
2022/01/17 04:24:42;;;;;;;13.1;8.7;;;;;;;2.51;84.36719;949.9565;;;;
2022/01/17 04:27:07;;;;;;;17.2;11.1;;;;;;;2.5;84.32227;949.8948;;;;
2022/01/17 04:29:35;;;;;;;15;9.7;;;;;;;2.62;84.50098;949.6863;;;;
2022/01/17 04:32:02;;;;;;;13.7;9.6;;;;;;;2.45;84.21094;949.8139;;;;
2022/01/17 04:34:29;;;;;;;22.7;17.5;;;;;;;2.47;84.52832;949.8664;;;;
2022/01/17 04:36:54;;;;;;;16.1;11.6;;;;;;;2.52;84.50488;949.8244;;;;
2022/01/17 04:39:22;;;;;;;17.1;10.8;;;;;;;2.61;84.16309;949.7784;;;;
2022/01/17 04:41:47;;;;;;;14.3;9.4;;;;;;;2.42;84.58398;949.6754;;;;
2022/01/17 04:46:39;;;;;;;16.6;10.1;;;;;;;2.55;84.8916;949.6484;;;;
2022/01/17 04:49:04;;;;;;;13.6;9.5;;;;;;;2.64;84.64063;949.7254;;;;
2022/01/17 04:51:30;;;;;;;15.4;10.4;;;;;;;2.62;84.6123;949.7979;;;;
2022/01/17 04:54:17;;;;;;;14.4;10.1;;;;;;;2.58;84.68555;949.8043;;;;
2022/01/17 04:56:22;;;;;;;15.1;10.4;;;;;;;2.6;84.93457;949.7628;;;;
2022/01/17 04:58:47;;;;;;;16.5;9.8;;;;;;;2.53;84.9668;949.7847;;;;
2022/01/17 05:01:14;;;;;;;17.2;11.6;;;;;;;2.41;85.79395;949.9094;;;;
2022/01/17 05:03:39;;;;;;;17;11.1;;;;;;;2.44;86.0127;949.8914;;;;
2022/01/17 05:06:05;;;;;;;17.9;12.5;;;;;;;2.56;85.49805;949.9415;;;;
2022/01/17 05:08:31;;;;;;;18.7;12.5;;;;;;;2.5;85.59766;949.9324;;;;
2022/01/17 05:10:58;;;;;;;16.8;11.5;;;;;;;2.47;85.72656;949.918;;;;
2022/01/17 05:13:31;;;;;;;17.7;11.9;;;;;;;2.46;85.87109;949.9978;;;;
2022/01/17 05:16:03;;;;;;;17.1;10.6;;;;;;;2.45;86.14941;949.9695;;;;
2022/01/17 05:19:48;;;;;;;16.1;10.4;;;;;;;2.27;86.50391;950.0584;;;;
2022/01/17 05:20:50;;;;;;;17.6;10.1;;;;;;;2.33;86.64063;949.9794;;;;
2022/01/17 05:23:15;;;;;;;16.2;10.9;;;;;;;2.42;86.45508;950.0439;;;;
2022/01/17 05:25:45;;;;;;;15.6;9.6;;;;;;;2.34;86.27051;950.0985;;;;
2022/01/17 05:28:10;;;;;;;15.3;10.1;;;;;;;2.07;87.4043;950.168;;;;
2022/01/17 05:30:36;;;;;;;14.4;9.5;;;;;;;2.19;87.00098;950.3086;;;;
2022/01/17 05:33:02;;;;;;;14.5;8.8;;;;;;;2.31;87.03809;950.4041;;;;
2022/01/17 05:35:28;;;;;;;17.7;9.3;;;;;;;2.28;86.97656;950.5472;;;;
2022/01/17 05:37:53;;;;;;;14.9;9.1;;;;;;;2.2;86.97266;950.4631;;;;
2022/01/17 05:40:20;;;;;;;12.8;8.8;;;;;;;2.27;86.8418;950.3967;;;;
2022/01/17 05:42:45;;;;;;;15.6;9.5;;;;;;;2.18;86.7207;950.4459;;;;
2022/01/17 05:45:11;;;;;;;15.6;11.3;;;;;;;2.19;86.8125;950.423;;;;
2022/01/17 05:47:36;;;;;;;14.3;9.2;;;;;;;2.12;86.7998;950.3677;;;;
2022/01/17 05:50:04;;;;;;;12.7;8.4;;;;;;;2.13;86.69824;950.2433;;;;
2022/01/17 05:52:29;;;;;;;12.9;9.3;;;;;;;2.25;86.48926;950.177;;;;
2022/01/17 05:54:55;;;;;;;12.4;9.3;;;;;;;2.34;85.92578;950.1319;;;;
2022/01/17 05:57:20;;;;;;;12.2;8.9;;;;;;;2.16;86.10156;949.9975;;;;
2022/01/17 05:59:47;;;;;;;14.9;9.1;;;;;;;2.26;86.29004;950.0189;;;;
2022/01/17 06:02:13;;;;;;;15.4;10.4;;;;;;;2.35;86.40918;949.9579;;;;
2022/01/17 06:04:38;;;;;;;14.2;9.8;;;;;;;2.43;85.96582;949.9182;;;;
2022/01/17 06:07:04;;;;;;;16.8;9.9;;;;;;;2.48;85.74121;949.9462;;;;
2022/01/17 06:09:29;;;;;;;14.9;10.3;;;;;;;2.5;85.80176;949.9294;;;;
2022/01/17 06:11:57;;;;;;;15.6;9.8;;;;;;;2.58;85.24414;949.9307;;;;
2022/01/17 06:14:22;;;;;;;17.3;10.6;;;;;;;2.5;85.41895;949.8458;;;;
2022/01/17 06:16:52;;;;;;;15;9.7;;;;;;;2.39;85.83203;949.7981;;;;
2022/01/17 06:19:17;;;;;;;14.4;9.8;;;;;;;2.26;85.77441;949.7681;;;;
2022/01/17 06:21:45;;;;;;;15.8;11.1;;;;;;;2.27;85.375;949.7366;;;;
2022/01/17 06:24:10;;;;;;;16.2;11.3;;;;;;;2.28;85.36328;949.7341;;;;
2022/01/17 06:26:39;;;;;;;16.6;10.7;;;;;;;2.32;85.00293;949.8398;;;;
2022/01/17 06:29:04;;;;;;;17.5;10.5;;;;;;;2.32;85.10352;949.8439;;;;
2022/01/17 06:31:30;;;;;;;16.7;10.2;;;;;;;2.27;85.47363;949.7394;;;;
2022/01/17 06:33:56;;;;;;;14.4;9.4;;;;;;;2.2;85.875;949.7811;;;;
2022/01/17 06:36:23;;;;;;;14.9;9.4;;;;;;;2.14;86.43359;949.7803;;;;
2022/01/17 06:38:49;;;;;;;13.3;8.6;;;;;;;2.18;86.50781;949.7844;;;;
2022/01/17 06:41:15;;;;;;;13.5;8.6;;;;;;;2.17;86.9541;949.7703;;;;
2022/01/17 06:43:40;;;;;;;12.9;9;;;;;;;2.22;86.87598;949.8546;;;;
2022/01/17 06:46:08;;;;;;;9.1;6.3;;;;;;;2.24;86.38672;949.7992;;;;
2022/01/17 06:48:33;;;;;;;9.7;6.9;;;;;;;2.29;86.62207;949.7786;;;;
2022/01/17 06:51:00;;;;;;;9.7;5.8;;;;;;;2.36;86.11719;949.8687;;;;
2022/01/17 06:53:27;;;;;;;9.8;6.5;;;;;;;2.4;85.93848;949.9056;;;;
2022/01/17 06:55:50;;;;;;;7.9;6.3;;;;;;;2.5;85.40723;949.8836;;;;
2022/01/17 06:58:17;;;;;;;10.2;6.2;;;;;;;2.47;85.73828;949.8535;;;;
2022/01/17 07:00:44;;;;;;;10.8;6.7;;;;;;;2.43;86.24609;949.8826;;;;
2022/01/17 07:03:07;;;;;;;10.8;6.6;;;;;;;2.48;86.19922;949.8541;;;;
2022/01/17 07:05:34;;;;;;;8;6;;;;;;;2.48;85.89648;949.8279;;;;
2022/01/17 07:07:59;;;;;;;6.7;5.2;;;;;;;2.42;86.05176;949.7436;;;;
2022/01/17 07:10:28;;;;;;;8;5.3;;;;;;;2.37;86.79297;949.6722;;;;
2022/01/17 07:12:53;;;;;;;6.8;4.6;;;;;;;2.45;86.6416;949.6998;;;;
2022/01/17 07:15:20;;;;;;;9.9;6.6;;;;;;;2.48;86.64941;949.8613;;;;
2022/01/17 07:17:45;;;;;;;10.9;6.1;;;;;;;2.52;86.91406;949.8134;;;;
2022/01/17 07:20:13;;;;;;;9.4;6;;;;;;;2.68;86.53125;949.9045;;;;
2022/01/17 07:22:38;;;;;;;11.9;6.8;;;;;;;2.76;85.71777;950.2087;;;;
2022/01/17 07:25:06;;;;;;;13.3;8.7;;;;;;;2.76;85.80762;950.2709;;;;
2022/01/17 07:27:31;;;;;;;13.1;8.1;;;;;;;2.78;85.54395;950.325;;;;
2022/01/17 07:29:57;;;;;;;13.3;8.7;;;;;;;2.87;85.29102;950.3847;;;;
2022/01/17 07:32:23;;;;;;;15.8;10.2;;;;;;;2.77;85.69727;950.5522;;;;
2022/01/17 07:34:48;;;;;;;13.1;8.5;;;;;;;2.85;85.35352;950.6333;;;;
2022/01/17 07:37:13;;;;;;;11.8;8.1;;;;;;;2.84;85.20703;950.695;;;;
2022/01/17 07:39:43;;;;;;;14.8;8.6;;;;;;;2.82;85.24707;950.7574;;;;
2022/01/17 07:42:06;;;;;;;16.1;10.1;;;;;;;2.75;85.56055;950.6104;;;;
2022/01/17 07:44:33;;;;;;;16.9;10.7;;;;;;;2.71;85.85449;950.5496;;;;
2022/01/17 07:46:58;;;;;;;11.1;6.6;;;;;;;2.83;85.63184;950.3508;;;;
2022/01/17 07:49:25;;;;;;;14.4;8.6;;;;;;;2.81;85.7627;950.3566;;;;
2022/01/17 07:51:50;;;;;;;13.2;7.9;;;;;;;2.9;85.36621;950.4824;;;;
2022/01/17 07:54:17;;;;;;;11.2;7.6;;;;;;;2.95;85.30566;950.514;;;;
2022/01/17 07:56:42;;;;;;;10.9;7.1;;;;;;;2.97;85.33496;950.5745;;;;
2022/01/17 07:59:08;;;;;;;13.4;8;;;;;;;3.08;85.43359;950.5533;;;;
2022/01/17 08:01:32;;;;;;;13.3;8.4;;;;;;;3.12;85.12891;950.6281;;;;
2022/01/17 08:04:00;;;;;;;12.6;7.7;;;;;;;3.16;84.90234;950.8391;;;;
2022/01/17 08:06:25;;;;;;;19.7;11.9;;;;;;;3.17;85.0498;950.9851;;;;
2022/01/17 08:08:50;;;;;;;15.2;9.6;;;;;;;3.19;84.81738;950.8423;;;;
2022/01/17 08:11:15;;;;;;;13.9;8.9;;;;;;;3.24;84.04102;950.8752;;;;
2022/01/17 08:13:40;;;;;;;15.4;9;;;;;;;3.16;84.51855;950.8822;;;;
2022/01/17 08:16:11;;;;;;;11.3;8.1;;;;;;;3.22;84.67676;950.96;;;;
2022/01/17 08:18:38;;;;;;;10.6;7.4;;;;;;;3.13;84.68359;950.9233;;;;
2022/01/17 08:21:04;;;;;;;12.7;8.7;;;;;;;3.22;84.4082;951.0953;;;;
2022/01/17 08:23:32;;;;;;;10.1;7.1;;;;;;;3.29;83.9043;951.1071;;;;
2022/01/17 08:25:57;;;;;;;13.8;8.9;;;;;;;3.25;84.02051;951.2142;;;;
2022/01/17 08:28:23;;;;;;;11.5;8.4;;;;;;;3.31;84.31348;951.0901;;;;
2022/01/17 08:30:48;;;;;;;11.1;8;;;;;;;3.3;83.83984;951.0764;;;;
2022/01/17 08:33:15;;;;;;;12.3;8.4;;;;;;;3.34;83.78027;950.9282;;;;
2022/01/17 08:35:40;;;;;;;20.2;13.8;;;;;;;3.22;83.84668;951.0931;;;;
2022/01/17 08:38:06;;;;;;;21;13.8;;;;;;;3.19;83.9082;950.9554;;;;
2022/01/17 08:40:31;;;;;;;19.4;12.4;;;;;;;3.08;84.85254;950.9109;;;;
2022/01/17 08:42:58;;;;;;;17.6;11;;;;;;;3.24;83.82813;950.8342;;;;
2022/01/17 08:45:24;;;;;;;18.3;10.6;;;;;;;3.31;83.52734;950.7375;;;;
2022/01/17 08:47:51;;;;;;;16.5;10.7;;;;;;;3.5;82.93555;950.6192;;;;
2022/01/17 08:50:15;;;;;;;21.7;13.1;;;;;;;3.53;82.36816;950.65;;;;
2022/01/17 08:52:41;;;;;;;17.1;10.3;;;;;;;3.65;82.42676;950.5918;;;;
2022/01/17 08:55:06;;;;;;;11.6;7.4;;;;;;;3.88;81.0332;950.5623;;;;
2022/01/17 08:57:32;;;;;;;11.9;7.3;;;;;;;4.05;80.36816;950.5757;;;;
2022/01/17 08:59:57;;;;;;;10.6;6.7;;;;;;;4.13;80.24707;950.6563;;;;
2022/01/17 09:02:25;;;;;;;17.2;10.2;;;;;;;4.23;79.61133;950.6924;;;;
2022/01/17 09:04:50;;;;;;;14.6;8.8;;;;;;;4.39;79.54004;950.7932;;;;
2022/01/17 09:07:19;;;;;;;16.2;10.2;;;;;;;4.48;79.39941;950.8304;;;;
2022/01/17 09:09:44;;;;;;;16.5;10.1;;;;;;;4.57;78.34863;950.6635;;;;
2022/01/17 09:12:12;;;;;;;10.8;7.2;;;;;;;4.62;77.11816;950.5355;;;;
2022/01/17 09:14:37;;;;;;;10.5;7;;;;;;;4.79;77.23926;950.4966;;;;
2022/01/17 09:17:06;;;;;;;11.8;6.7;;;;;;;5.06;76.09277;950.5922;;;;
2022/01/17 09:19:34;;;;;;;11;8.7;;;;;;;5.34;74.7666;950.6214;;;;
2022/01/17 09:21:59;;;;;;;14.7;8.5;;;;;;;5.58;74.49316;950.7399;;;;
2022/01/17 09:24:24;;;;;;;7.4;5.4;;;;;;;5.59;73.47754;950.7353;;;;
2022/01/17 09:26:51;;;;;;;8.6;6.7;;;;;;;5.56;73.30566;950.8304;;;;
2022/01/17 09:29:17;;;;;;;24.2;14.9;;;;;;;5.58;73.22949;950.9098;;;;
2022/01/17 09:31:43;;;;;;;10;5.7;;;;;;;5.87;71.34766;950.8244;;;;
2022/01/17 09:34:08;;;;;;;8.9;5.9;;;;;;;5.91;71.76172;950.7067;;;;
2022/01/17 09:36:35;;;;;;;28.7;19;;;;;;;6.17;71.20508;950.9047;;;;
2022/01/17 09:38:59;;;;;;;20.6;13.1;;;;;;;6.19;67.22949;950.957;;;;
2022/01/17 09:41:28;;;;;;;11.3;7.3;;;;;;;6.32;65.51953;950.8912;;;;
2022/01/17 09:43:53;;;;;;;9.9;6;;;;;;;6.52;64.65723;950.7678;;;;
2022/01/17 09:46:23;;;;;;;6.3;4.5;;;;;;;6.79;60.87109;950.604;;;;
2022/01/17 09:48:48;;;;;;;2.9;1.4;;;;;;;6.75;57.19824;950.7986;;;;
2022/01/17 09:51:17;;;;;;;1.2;0.9;;;;;;;6.84;56.125;950.9164;;;;
2022/01/17 09:53:38;;;;;;;0.8;0.8;;;;;;;7.06;55.21289;951.0314;;;;
2022/01/17 09:56:03;;;;;;;0.5;0.5;;;;;;;7.31;55.21191;950.9709;;;;
2022/01/17 09:58:32;;;;;;;0.5;0.5;;;;;;;7.38;52.30664;950.8684;;;;
2022/01/17 10:01:04;;;;;;;2.3;1.5;;;;;;;7.55;56.43359;950.9805;;;;
2022/01/17 10:03:28;;;;;;;2.3;2;;;;;;;7.76;56.94824;950.9514;;;;
2022/01/17 10:05:59;;;;;;;4.8;3;;;;;;;7.57;58.95313;951.2079;;;;
2022/01/17 10:08:29;;;;;;;4.2;3.1;;;;;;;7.33;59.78125;951.0931;;;;
2022/01/17 10:11:00;;;;;;;3.7;3.2;;;;;;;7.3;61.16016;951.1384;;;;
2022/01/17 10:13:25;;;;;;;4.5;3.2;;;;;;;7;62.1123;951.0053;;;;
2022/01/17 10:16:00;;;;;;;3.6;2.4;;;;;;;7;61.51367;950.9478;;;;
2022/01/17 10:18:33;;;;;;;3.6;2.6;;;;;;;7.38;60.50098;950.8564;;;;
2022/01/17 10:21:09;;;;;;;4.6;2.6;;;;;;;7.22;60.38867;950.7628;;;;
2022/01/17 10:24:37;;;;;;;3;2.3;;;;;;;7.14;60.48047;950.5795;;;;
2022/01/17 10:26:00;;;;;;;3.6;2.5;;;;;;;7.19;61.71094;950.5853;;;;
2022/01/17 10:30:25;;;;;;;3.9;2.5;;;;;;;6.95;62.63672;950.7672;;;;
2022/01/17 10:31:18;;;;;;;2.9;2.3;;;;;;;6.83;62.11133;950.7425;;;;
2022/01/17 10:35:39;;;;;;;3;2.4;;;;;;;6.71;62.86426;950.5238;;;;
2022/01/17 10:38:05;;;;;;;2.6;2.4;;;;;;;6.3;64.625;950.5394;;;;
2022/01/17 10:40:34;;;;;;;3.2;2.3;;;;;;;5.9;65.13965;950.3819;;;;
2022/01/17 10:43:01;;;;;;;2;1.8;;;;;;;5.87;61.39746;950.5875;;;;
2022/01/17 10:45:29;;;;;;;1.1;1;;;;;;;6.28;57.23828;950.5856;;;;
2022/01/17 10:47:53;;;;;;;1.2;1.1;;;;;;;6.51;55.37988;950.4841;;;;
2022/01/17 10:50:18;;;;;;;1.1;1;;;;;;;6.75;54.94727;950.3934;;;;
2022/01/17 10:52:44;;;;;;;0.6;0.6;;;;;;;6.93;52.9873;950.391;;;;
2022/01/17 10:55:12;;;;;;;0.4;0.4;;;;;;;7.26;50.36719;950.2219;;;;
2022/01/17 10:57:39;;;;;;;0.3;0.3;;;;;;;7.46;51.04688;950.4141;;;;
2022/01/17 11:00:08;;;;;;;1.3;0.3;;;;;;;7.56;49.7334;950.312;;;;
2022/01/17 11:02:36;;;;;;;1.7;0.8;;;;;;;7.68;49.70117;950.1964;;;;
2022/01/17 11:05:02;;;;;;;0.4;0.4;;;;;;;7.72;48.73145;950.1339;;;;
2022/01/17 11:07:33;;;;;;;3.7;0.6;;;;;;;7.69;48.42188;950.1003;;;;
2022/01/17 11:10:07;;;;;;;1.6;0.4;;;;;;;7.82;49.88867;950.2261;;;;
2022/01/17 11:12:23;;;;;;;0.9;0.3;;;;;;;7.73;49.57129;950.2944;;;;
2022/01/17 11:14:49;;;;;;;0.8;0.3;;;;;;;7.74;49.96973;950.2188;;;;
2022/01/17 11:17:17;;;;;;;0.8;0.6;;;;;;;7.61;50.83887;950.2224;;;;
2022/01/17 11:22:07;;;;;;;1.5;0.3;;;;;;;7.62;50.75;950.3283;;;;
2022/01/17 11:24:35;;;;;;;4.7;0.6;;;;;;;7.59;48.31738;950.0751;;;;
2022/01/17 11:27:03;;;;;;;0.4;0.4;;;;;;;7.69;48.5918;950.1225;;;;
2022/01/17 11:29:25;;;;;;;4.5;1.2;;;;;;;7.74;48.46094;949.9595;;;;
2022/01/17 11:31:53;;;;;;;2.4;0.9;;;;;;;7.71;47.87793;950.0717;;;;
2022/01/17 11:34:19;;;;;;;1.6;0.5;;;;;;;7.8;48.875;950.1733;;;;
2022/01/17 11:36:45;;;;;;;5.8;1.3;;;;;;;7.85;48.2002;950.0779;;;;
2022/01/17 11:39:15;;;;;;;3;0.7;;;;;;;8;48.22852;949.9933;;;;
2022/01/17 11:42:12;;;;;;;3.8;0.7;;;;;;;8.07;46.62402;949.8417;;;;
2022/01/17 11:44:38;;;;;;;0.7;0.4;;;;;;;7.96;46.18164;949.7317;;;;
2022/01/17 11:47:02;;;;;;;1.3;0.6;;;;;;;8.02;46.35742;949.7247;;;;
2022/01/17 11:49:31;;;;;;;9.8;1.5;;;;;;;8.16;47.54395;949.7134;;;;
2022/01/17 11:51:55;;;;;;;1.2;0.5;;;;;;;8.12;45.92578;949.7267;;;;
2022/01/17 11:54:20;;;;;;;2.9;0.7;;;;;;;8.33;45.20898;949.826;;;;
2022/01/17 11:56:45;;;;;;;2.5;0.6;;;;;;;8.35;45.43945;949.9398;;;;
2022/01/17 11:59:10;;;;;;;0.9;0.6;;;;;;;8.52;45.77539;949.9719;;;;
2022/01/17 12:01:38;;;;;;;1.2;0.4;;;;;;;8.66;44.41406;949.8705;;;;
2022/01/17 12:04:03;;;;;;;1.5;0.5;;;;;;;8.7;45.58984;949.6965;;;;
2022/01/17 12:06:30;;;;;;;1.2;0.3;;;;;;;8.77;44.3457;949.6671;;;;
2022/01/17 12:08:55;;;;;;;3.7;1.1;;;;;;;8.78;43.85938;949.8289;;;;
2022/01/17 12:11:21;;;;;;;2.5;0.5;;;;;;;8.67;43.34766;949.8629;;;;
2022/01/17 12:13:48;;;;;;;4.7;1;;;;;;;8.61;43.98926;949.7422;;;;
2022/01/17 12:16:17;;;;;;;2.1;0.9;;;;;;;8.62;43.91016;949.442;;;;
2022/01/17 12:18:40;;;;;;;6.6;1.7;;;;;;;8.58;44.45117;949.2125;;;;
2022/01/17 12:21:05;;;;;;;1.2;1.1;;;;;;;8.31;44.5166;949.4264;;;;
2022/01/17 12:23:35;;;;;;;4.4;2.3;;;;;;;8.16;45.0459;949.3945;;;;
2022/01/17 12:26:00;;;;;;;2.1;1.7;;;;;;;8.04;44.1123;949.2902;;;;
2022/01/17 12:28:27;;;;;;;1.6;1.3;;;;;;;7.99;43.78906;949.4083;;;;
2022/01/17 12:30:54;;;;;;;2.4;1.1;;;;;;;8.04;44.18066;949.4631;;;;
2022/01/17 12:33:19;;;;;;;2.4;1.9;;;;;;;8.09;44.51563;949.5086;;;;
2022/01/17 12:35:46;;;;;;;2.3;1.6;;;;;;;8.14;43.35059;949.527;;;;
2022/01/17 12:38:13;;;;;;;0.7;0.5;;;;;;;8.33;42.31445;949.4747;;;;
2022/01/17 12:40:34;;;;;;;4.5;2.8;;;;;;;8.66;43.0166;949.4807;;;;
2022/01/17 12:42:59;;;;;;;2.2;0.5;;;;;;;8.87;41.80957;949.4897;;;;
2022/01/17 12:45:25;;;;;;;0.8;0.6;;;;;;;9.09;40.91992;949.426;;;;
2022/01/17 12:47:53;;;;;;;1;0.4;;;;;;;9.22;40.66992;949.5703;;;;
2022/01/17 12:50:18;;;;;;;1.6;0.7;;;;;;;9.18;40.34863;949.5647;;;;
2022/01/17 12:52:45;;;;;;;5;0.8;;;;;;;9.1;41.77539;949.4573;;;;
2022/01/17 12:55:13;;;;;;;1.8;0.6;;;;;;;8.87;41.63867;949.3762;;;;
2022/01/17 12:57:40;;;;;;;0.9;0.5;;;;;;;8.76;42.01465;949.2921;;;;
2022/01/17 13:00:05;;;;;;;2.7;0.4;;;;;;;8.92;42.37207;949.3382;;;;
2022/01/17 13:02:33;;;;;;;0.8;0.5;;;;;;;8.64;42.04883;949.4199;;;;
2022/01/17 13:04:58;;;;;;;2.3;0.4;;;;;;;8.87;42.14941;949.3475;;;;
2022/01/17 13:07:25;;;;;;;2.5;0.6;;;;;;;8.77;42.25488;949.2726;;;;
2022/01/17 13:09:50;;;;;;;1.2;0.5;;;;;;;9.42;42.12402;949.1549;;;;
2022/01/17 13:12:16;;;;;;;3;0.7;;;;;;;9.42;41.55566;949.4444;;;;
2022/01/17 13:14:41;;;;;;;0.3;0.2;;;;;;;9.38;39.96875;949.3377;;;;
2022/01/17 13:17:06;;;;;;;6.7;1.1;;;;;;;9.67;42.16016;949.4801;;;;
2022/01/17 13:19:34;;;;;;;3.3;1.1;;;;;;;9.78;42;949.3641;;;;
2022/01/17 13:21:59;;;;;;;2.1;0.9;;;;;;;9.69;43.93945;949.3137;;;;
2022/01/17 13:24:34;;;;;;;4.2;1.2;;;;;;;9.6;45.04785;949.3411;;;;
2022/01/17 13:26:49;;;;;;;3.6;1;;;;;;;9.55;46.3291;949.3775;;;;
2022/01/17 13:29:17;;;;;;;2;0.9;;;;;;;9.08;47.18945;949.4629;;;;
2022/01/17 13:31:42;;;;;;;2.3;1;;;;;;;9.37;47.84668;949.3272;;;;
2022/01/17 13:34:09;;;;;;;3.4;1.2;;;;;;;8.38;50.4873;949.2911;;;;
2022/01/17 13:36:34;;;;;;;3.9;1.8;;;;;;;8.01;53.28125;949.3089;;;;
2022/01/17 13:39:00;;;;;;;4.2;1.6;;;;;;;7.71;54.97949;949.4412;;;;
2022/01/17 13:41:27;;;;;;;2.7;1.2;;;;;;;7.42;55.54297;949.5043;;;;
2022/01/17 13:43:52;;;;;;;1.5;1.1;;;;;;;7.7;55.93066;949.4986;;;;
2022/01/17 13:46:19;;;;;;;3.9;2;;;;;;;7.91;55.58301;949.4594;;;;
2022/01/17 13:48:46;;;;;;;13.3;7.3;;;;;;;7.68;57.45996;949.3364;;;;
2022/01/17 13:51:14;;;;;;;19.8;7.8;;;;;;;7.38;58.53027;949.3457;;;;
2022/01/17 13:53:39;;;;;;;3.4;2.4;;;;;;;7.17;58.83105;949.3109;;;;
2022/01/17 13:56:07;;;;;;;4.2;1.9;;;;;;;7.43;58.21875;949.2637;;;;
2022/01/17 13:58:32;;;;;;;1.9;1.7;;;;;;;7.15;58.91797;949.3488;;;;
2022/01/17 14:00:58;;;;;;;3.7;1.8;;;;;;;7.16;58.22949;949.427;;;;
2022/01/17 14:03:22;;;;;;;6.1;1.9;;;;;;;6.93;59.46484;949.3777;;;;
2022/01/17 14:05:52;;;;;;;3.7;1.7;;;;;;;7.24;59.19043;949.2955;;;;
2022/01/17 14:08:20;;;;;;;2;1.4;;;;;;;7.33;58.18262;949.2374;;;;
2022/01/17 14:10:45;;;;;;;2.1;1.4;;;;;;;7.43;57.6084;949.3147;;;;
2022/01/17 14:13:12;;;;;;;1.6;0.9;;;;;;;7.46;54.31348;949.2112;;;;
2022/01/17 14:15:40;;;;;;;2.3;1.1;;;;;;;7.32;54.6582;949.2054;;;;
2022/01/17 14:18:07;;;;;;;1;0.9;;;;;;;7.27;55.16113;949.2581;;;;
2022/01/17 14:20:32;;;;;;;0.7;0.7;;;;;;;7.57;52.72754;949.1869;;;;
2022/01/17 14:22:58;;;;;;;2.1;0.9;;;;;;;7.55;53.32617;949.3383;;;;
2022/01/17 14:25:24;;;;;;;11.1;2.8;;;;;;;8.04;53.45508;949.5011;;;;
2022/01/17 14:27:51;;;;;;;1.5;1.3;;;;;;;9.5;49.50098;949.5811;;;;
2022/01/17 14:30:17;;;;;;;6.8;5.3;;;;;;;10.63;46.53711;949.5496;;;;
2022/01/17 14:32:42;;;;;;;9;7.6;;;;;;;11.43;44.04785;949.6367;;;;
2022/01/17 14:35:07;;;;;;;5.9;3.1;;;;;;;11.67;43.62598;949.736;;;;
2022/01/17 14:37:34;;;;;;;3.5;1.3;;;;;;;13.24;40.3252;949.6826;;;;
2022/01/17 14:39:59;;;;;;;1.2;1.1;;;;;;;13.3;39.32129;949.738;;;;
2022/01/17 14:42:30;;;;;;;1.5;1;;;;;;;12.68;40.15918;949.8524;;;;
2022/01/17 14:44:54;;;;;;;2.2;1.1;;;;;;;12.91;39.54883;949.7148;;;;
2022/01/17 14:47:16;;;;;;;7.6;3.3;;;;;;;11.71;42.06152;949.8631;;;;
2022/01/17 14:49:43;;;;;;;1.1;0.8;;;;;;;11.05;43.14063;949.8896;;;;
2022/01/17 14:52:08;;;;;;;4.2;1.6;;;;;;;10.68;43.82324;949.8839;;;;
2022/01/17 14:54:38;;;;;;;11.9;9.8;;;;;;;10.81;43.72266;949.8233;;;;
2022/01/17 14:59:37;;;;;;;6.1;1.8;;;;;;;9.48;46.37988;949.8914;;;;
2022/01/17 15:01:58;;;;;;;1.1;0.8;;;;;;;8.94;47.19629;949.925;;;;
2022/01/17 15:04:17;;;;;;;5.2;1.8;;;;;;;7.65;51.19531;949.9694;;;;
2022/01/17 15:06:45;;;;;;;1.1;1;;;;;;;7.55;51.28516;949.9651;;;;